Fillmore, CA (93015)

5:39 AM PDT on August 20, 2014 (GMT -0700)
KCAFILLM4 | Change Station
CLOSE
Current Station
Personal Weather Station
Location: Fillmore, CA
Elevation: 594 ft
Nearby Weather Stations

Elev 594 ft 34.41 °N, 118.91 °W | Updated 13 minutes ago

Overcast
Overcast
64.4 °F
Feels Like 64.4 °F
N
0.0
Wind Variable Wind from SE

Today
High -- | Low -- °F
--% Chance of Precip.
Yesterday
High -- | Low -- °F
Precip. -- in
6:20 AM 7:37 PM
Waning Crescent, 22% visible
Pressure 29.89 in
Visibility 10.0 miles
Clouds Overcast 3100 ft
Dew Point 59 °F
Humidity 82%
Rainfall 0.00 in
Snow Depth Not available.
UV 0 out of 12
Pollen 7.80 out of 12
Ozone Good
Flu Activity Not available.
SPECI KCMA 201206Z 00000KT 10SM OVC031 20/16 A2989 RMK AO2 $

More Conditions Fewer Conditions

Pressure 29.89 in
Visibility 10.0 miles
Clouds Overcast 3100 ft
Dew Point 59 °F
Humidity 82%
Rainfall 0.00 in
Snow Depth Not available.
UV 0 out of 12
Pollen 7.80 out of 12
Ozone Good
Flu Activity Not available.
SPECI KCMA 201206Z 00000KT 10SM OVC031 20/16 A2989 RMK AO2 $

More Conditions Fewer Conditions

10-Day Weather Forecast

Almanac

Astronomy

Aug. 20, 2014 Rise Set
Actual Time 6:20 AM PDT 7:37 PM PDT
Civil Twilight 5:54 AM PDT 8:03 PM PDT
Nautical Twilight 5:22 AM PDT 8:34 PM PDT
Astronomical Twilight 4:50 AM PDT 9:07 PM PDT
Moon 2:08 AM PDT 4:21 PM PDT
Length of Visible Light 14h 09m
Length of Day
13h 16m
Tomorrow will be 1m 56s shorter.
Waning Crescent, 22% of the Moon is Illuminated
Today
Waning Crescent
Aug 25
New
Sep 2
First Quarter
Sep 8
Full
Sep 15
Last Quarter

Today's Extremes

State Highs State Lows

Community

WunderPhotos

Upload Photos

1,745,618 photos uploaded!

Nearby

Air Quality

  Air Quality AQ Index Pollutant
Yesterday Good
OZONE
Current Good
OZONE
Wednesday Moderate
PM2.5
Wednesday Good
OZONE
Thursday Moderate
PM2.5
Thursday Good
OZONE
Friday Moderate
PM2.5
Friday Good
OZONE
Saturday Moderate
PM2.5
Saturday Good
OZONE

Snow Depth

Station Depth Elevation
Leavitt Lake 0 in 9400 ft
Sonora Pass 0 in 8800 ft
Leavitt Meadows 1 in 7200 ft
Summit Meadow 1 in 9122 ft
Ebbetts Pass 0 in 8700 ft

Earthquake Activity

City Distance Mag. Time & Date
King City, California 171 miles 2.7 10:26 PM PDT
2014-08-15
Malibu Beach, California 32 miles 3.4 10:03 AM PDT
2014-08-15
Kettleman City, California 130 miles 2.9 11:32 PM PDT
2014-08-14
King City, California 171 miles 2.9 8:01 PM PDT
2014-08-14
Minimum magnitude displayed is 2.5.

Coastal Water Temperatures

Place Temperature
Santa Monica Pier 70.0 °F
Los Angeles, CA 66.9 °F
Port San Luis, CA 60.1 °F

Nearby Weather Stations